Time;durP1;ratioP1;P1;durP2;ratioP2;P2;SDS_P1;SDS_P2;PMS_P1;PMS_P2;Temp;Humidity;BMP_temperature;BMP_pressure;BME280_temperature;BME280_humidity;BME280_pressure;Samples;Min_cycle;Max_cycle;Signal;HPM_P1;HPM_P2
2021/08/12 00:01:02;;;;;;;5.80;5.30;;;;;;;;;;5010070;28;20227;-83
2021/08/12 00:03:28;;;;;;;5.93;5.40;;;;;;;;;;4995806;28;20226;-84
2021/08/12 00:05:54;;;;;;;6.33;5.23;;;;;;;;;;4994284;28;20268;-83
2021/08/12 00:08:20;;;;;;;5.70;5.20;;;;;;;;;;4994089;28;20274;-84
2021/08/12 00:10:50;;;;;;;5.20;4.70;;;;;;;;;;4994330;28;20208;-83
2021/08/12 00:13:20;;;;;;;4.77;4.37;;;;;;;;;;4994112;28;20185;-83
2021/08/12 00:15:46;;;;;;;5.17;4.77;;;;;;;;;;5010247;28;20697;-83
2021/08/12 00:18:12;;;;;;;6.77;4.50;;;;;;;;;;4993995;28;20194;-83
2021/08/12 00:20:38;;;;;;;4.90;4.50;;;;;;;;;;4991295;28;20191;-83
2021/08/12 00:23:05;;;;;;;5.30;4.87;;;;;;;;;;4993756;28;20188;-84
2021/08/12 00:25:34;;;;;;;5.27;4.77;;;;;;;;;;4993922;28;20187;-83
2021/08/12 00:28:00;;;;;;;4.97;4.57;;;;;;;;;;4994153;28;20175;-83
2021/08/12 00:30:26;;;;;;;5.57;4.90;;;;;;;;;;4988542;28;20258;-84
2021/08/12 00:32:52;;;;;;;5.27;4.77;;;;;;;;;;5013342;28;20685;-83
2021/08/12 00:35:18;;;;;;;6.20;5.20;;;;;;;;;;4997745;28;20194;-83
2021/08/12 00:37:45;;;;;;;6.03;5.33;;;;;;;;;;4993692;28;20192;-83
2021/08/12 00:40:11;;;;;;;5.37;4.50;;;;;;;;;;4993847;28;20514;-83
2021/08/12 00:42:37;;;;;;;5.20;4.77;;;;;;;;;;4993425;28;20214;-84
2021/08/12 00:45:04;;;;;;;5.07;4.57;;;;;;;;;;4992812;28;20195;-83
2021/08/12 00:47:30;;;;;;;5.37;4.87;;;;;;;;;;4990155;28;20184;-83
2021/08/12 00:49:56;;;;;;;4.73;4.33;;;;;;;;;;4992294;28;20187;-83
2021/08/12 00:52:25;;;;;;;4.93;4.43;;;;;;;;;;4990061;28;20182;-83
2021/08/12 00:54:54;;;;;;;5.17;4.67;;;;;;;;;;4996314;28;20255;-83
2021/08/12 00:57:21;;;;;;;5.10;4.20;;;;;;;;;;4990050;28;20176;-83
2021/08/12 00:59:48;;;;;;;4.83;4.43;;;;;;;;;;4991778;28;20187;-83
2021/08/12 01:02:14;;;;;;;5.13;4.67;;;;;;;;;;4992907;28;20203;-83
2021/08/12 01:04:41;;;;;;;5.03;4.60;;;;;;;;;;4992465;28;20187;-83
2021/08/12 01:07:32;;;;;;;4.97;4.47;;;;;;;;;;5009600;28;20179;-83
2021/08/12 01:10:07;;;;;;;5.13;4.73;;;;;;;;;;4970731;28;20809;-83
2021/08/12 01:12:40;;;;;;;5.00;4.60;;;;;;;;;;4992737;28;20195;-83
2021/08/12 01:15:08;;;;;;;5.60;5.00;;;;;;;;;;4991288;28;20305;-83
2021/08/12 01:17:45;;;;;;;4.73;4.33;;;;;;;;;;4991552;28;20183;-83
2021/08/12 01:20:20;;;;;;;5.20;4.70;;;;;;;;;;4992530;28;20181;-83
2021/08/12 01:22:48;;;;;;;5.17;4.27;;;;;;;;;;4991572;28;20209;-83
2021/08/12 01:25:16;;;;;;;5.33;4.83;;;;;;;;;;4991467;28;20179;-83
2021/08/12 01:27:43;;;;;;;5.20;4.80;;;;;;;;;;4992561;28;20178;-83
2021/08/12 01:30:12;;;;;;;7.83;7.30;;;;;;;;;;4991493;28;20172;-83
2021/08/12 01:32:52;;;;;;;6.43;4.50;;;;;;;;;;4992997;28;20192;-83
2021/08/12 01:35:20;;;;;;;5.07;4.57;;;;;;;;;;4990812;28;20303;-83
2021/08/12 01:37:48;;;;;;;4.90;4.50;;;;;;;;;;4988638;28;20232;-84
2021/08/12 01:40:16;;;;;;;5.80;5.30;;;;;;;;;;4988724;28;20207;-83
2021/08/12 01:42:42;;;;;;;5.60;5.10;;;;;;;;;;4992011;28;20537;-83
2021/08/12 01:45:09;;;;;;;4.90;4.50;;;;;;;;;;4992474;28;20170;-83
2021/08/12 01:47:36;;;;;;;6.20;5.13;;;;;;;;;;4991050;28;20658;-83
2021/08/12 01:50:04;;;;;;;5.63;5.13;;;;;;;;;;4990674;28;20584;-83
2021/08/12 01:52:32;;;;;;;5.00;4.50;;;;;;;;;;4991100;28;20175;-83
2021/08/12 01:54:58;;;;;;;5.03;4.63;;;;;;;;;;4990294;28;20243;-83
2021/08/12 01:57:24;;;;;;;5.17;4.67;;;;;;;;;;4990312;28;20270;-83
2021/08/12 01:59:51;;;;;;;5.37;4.50;;;;;;;;;;4990543;28;20619;-83
2021/08/12 02:02:17;;;;;;;5.30;4.80;;;;;;;;;;4987644;28;20192;-83
2021/08/12 02:04:43;;;;;;;5.13;4.67;;;;;;;;;;4988505;28;20281;-83
2021/08/12 02:07:11;;;;;;;4.80;4.40;;;;;;;;;;4992026;28;20210;-83
2021/08/12 02:09:37;;;;;;;4.87;4.47;;;;;;;;;;4990420;28;20191;-83
2021/08/12 02:12:04;;;;;;;4.40;4.00;;;;;;;;;;4992129;28;20237;-83
2021/08/12 02:14:32;;;;;;;5.53;5.07;;;;;;;;;;4987267;28;20199;-83
2021/08/12 02:16:58;;;;;;;5.30;4.83;;;;;;;;;;5004929;28;20187;-83
2021/08/12 02:19:24;;;;;;;5.43;4.93;;;;;;;;;;4989879;28;20686;-83
2021/08/12 02:21:52;;;;;;;5.30;4.87;;;;;;;;;;4990436;28;20565;-83
2021/08/12 02:24:23;;;;;;;5.10;4.70;;;;;;;;;;4989964;28;20283;-83
2021/08/12 02:26:56;;;;;;;6.00;5.23;;;;;;;;;;4990037;28;20197;-83
2021/08/12 02:29:22;;;;;;;5.30;4.80;;;;;;;;;;4990154;28;20548;-83
2021/08/12 02:31:49;;;;;;;5.23;4.83;;;;;;;;;;4991738;28;20175;-83
2021/08/12 02:34:15;;;;;;;5.50;5.00;;;;;;;;;;4989865;28;20195;-83
2021/08/12 02:36:42;;;;;;;5.17;4.77;;;;;;;;;;5006705;28;20225;-83
2021/08/12 02:39:09;;;;;;;7.43;4.67;;;;;;;;;;4990186;28;20214;-83
2021/08/12 02:41:35;;;;;;;4.87;4.47;;;;;;;;;;4989712;28;20210;-83
2021/08/12 02:44:02;;;;;;;5.07;4.67;;;;;;;;;;4989971;28;20187;-83
2021/08/12 02:46:29;;;;;;;4.47;4.17;;;;;;;;;;5006353;28;20209;-83
2021/08/12 02:48:55;;;;;;;4.90;4.50;;;;;;;;;;4991217;28;20738;-83
2021/08/12 02:51:23;;;;;;;4.97;4.47;;;;;;;;;;4989567;28;20266;-83
2021/08/12 02:53:49;;;;;;;5.30;4.80;;;;;;;;;;4989642;28;20304;-83
2021/08/12 02:56:16;;;;;;;5.20;4.70;;;;;;;;;;4989520;28;20190;-83
2021/08/12 02:58:42;;;;;;;4.63;4.23;;;;;;;;;;4989943;28;20261;-83
2021/08/12 03:01:09;;;;;;;6.60;6.10;;;;;;;;;;4990097;28;20746;-83
2021/08/12 03:03:37;;;;;;;4.70;4.30;;;;;;;;;;4990032;28;20221;-83
2021/08/12 03:06:03;;;;;;;4.50;4.13;;;;;;;;;;4990781;28;20167;-83
2021/08/12 03:08:31;;;;;;;5.33;4.83;;;;;;;;;;4991404;28;20182;-83
2021/08/12 03:10:58;;;;;;;5.40;4.77;;;;;;;;;;4989646;28;20198;-83
2021/08/12 03:13:24;;;;;;;4.37;4.03;;;;;;;;;;4989836;28;20182;-83
2021/08/12 03:15:50;;;;;;;5.23;4.57;;;;;;;;;;4990882;28;20194;-83
2021/08/12 03:18:16;;;;;;;8.40;7.70;;;;;;;;;;4989967;28;20493;-83
2021/08/12 03:20:43;;;;;;;5.07;4.67;;;;;;;;;;4989382;28;20183;-83
2021/08/12 03:23:09;;;;;;;4.80;4.40;;;;;;;;;;4989681;28;20267;-83
2021/08/12 03:25:35;;;;;;;6.80;4.90;;;;;;;;;;4989919;28;20282;-83
2021/08/12 03:28:01;;;;;;;6.37;5.27;;;;;;;;;;4990010;28;20172;-83
2021/08/12 03:30:27;;;;;;;5.30;4.80;;;;;;;;;;4989845;28;20175;-83
2021/08/12 03:32:53;;;;;;;5.43;4.97;;;;;;;;;;4990630;28;20207;-83
2021/08/12 03:35:19;;;;;;;5.10;4.70;;;;;;;;;;4994825;28;20210;-83
2021/08/12 03:37:45;;;;;;;5.93;5.33;;;;;;;;;;4987353;28;20670;-83
2021/08/12 03:40:12;;;;;;;8.10;7.43;;;;;;;;;;4993277;28;20274;-83
2021/08/12 03:42:38;;;;;;;4.90;4.50;;;;;;;;;;5009482;28;20286;-82
2021/08/12 03:45:05;;;;;;;4.43;3.83;;;;;;;;;;4993100;28;20548;-82
2021/08/12 03:47:31;;;;;;;5.70;5.23;;;;;;;;;;5009795;28;20826;-82
2021/08/12 03:49:58;;;;;;;5.30;4.90;;;;;;;;;;4992779;28;20531;-83
2021/08/12 03:52:24;;;;;;;6.23;4.87;;;;;;;;;;4993121;28;20171;-82
2021/08/12 03:54:50;;;;;;;5.07;4.57;;;;;;;;;;4992443;28;20235;-83
2021/08/12 03:57:16;;;;;;;5.83;5.00;;;;;;;;;;4993016;28;20218;-83
2021/08/12 03:59:42;;;;;;;5.00;4.60;;;;;;;;;;4993242;28;20179;-83
2021/08/12 04:02:08;;;;;;;6.23;5.73;;;;;;;;;;4992731;28;20249;-82
2021/08/12 04:04:34;;;;;;;5.37;4.80;;;;;;;;;;4992463;28;20547;-83
2021/08/12 04:07:00;;;;;;;5.10;4.70;;;;;;;;;;4994722;28;20253;-83
2021/08/12 04:09:26;;;;;;;4.73;4.33;;;;;;;;;;4992864;28;20176;-83
2021/08/12 04:11:52;;;;;;;4.53;4.10;;;;;;;;;;4992503;28;20190;-83
2021/08/12 04:14:18;;;;;;;5.17;4.67;;;;;;;;;;4992951;28;20183;-83
2021/08/12 04:16:44;;;;;;;5.30;4.77;;;;;;;;;;4992874;28;20218;-83
2021/08/12 04:19:12;;;;;;;5.17;4.67;;;;;;;;;;4992937;28;20603;-83
2021/08/12 04:21:38;;;;;;;5.43;4.93;;;;;;;;;;4992279;28;20226;-83
2021/08/12 04:24:05;;;;;;;5.53;5.00;;;;;;;;;;4992525;28;20237;-83
2021/08/12 04:26:31;;;;;;;4.77;4.37;;;;;;;;;;4992625;28;20211;-83
2021/08/12 04:28:57;;;;;;;5.13;4.63;;;;;;;;;;4994004;28;20258;-83
2021/08/12 04:31:24;;;;;;;5.13;4.73;;;;;;;;;;4992722;28;20605;-83
2021/08/12 04:33:50;;;;;;;5.17;4.77;;;;;;;;;;4977642;28;20294;-83
2021/08/12 04:36:16;;;;;;;4.80;4.40;;;;;;;;;;5008385;28;20187;-85
2021/08/12 04:38:42;;;;;;;4.80;4.40;;;;;;;;;;4993556;28;20603;-84
2021/08/12 04:41:08;;;;;;;5.45;4.95;;;;;;;;;;4991418;28;20437;-85
2021/08/12 04:43:35;;;;;;;4.77;4.27;;;;;;;;;;4991821;28;20233;-84
2021/08/12 04:46:01;;;;;;;7.57;4.73;;;;;;;;;;4992654;28;20485;-84
2021/08/12 04:48:27;;;;;;;4.87;4.43;;;;;;;;;;4991845;28;20263;-84
2021/08/12 04:50:53;;;;;;;5.10;4.70;;;;;;;;;;4991793;28;20231;-84
2021/08/12 04:53:19;;;;;;;4.70;4.30;;;;;;;;;;4991750;28;20175;-84
2021/08/12 04:55:45;;;;;;;4.80;4.40;;;;;;;;;;4992191;28;20187;-84
2021/08/12 04:58:11;;;;;;;5.80;5.00;;;;;;;;;;4992171;28;20623;-84
2021/08/12 05:00:37;;;;;;;7.10;6.50;;;;;;;;;;4991783;28;20194;-84
2021/08/12 05:03:03;;;;;;;5.43;4.80;;;;;;;;;;4992040;28;20631;-84
2021/08/12 05:05:29;;;;;;;5.50;4.70;;;;;;;;;;4991474;28;20195;-84
2021/08/12 05:07:55;;;;;;;4.77;4.37;;;;;;;;;;5008452;28;20203;-84
2021/08/12 05:10:21;;;;;;;6.03;4.57;;;;;;;;;;5008004;28;20187;-84
2021/08/12 05:12:47;;;;;;;4.80;4.40;;;;;;;;;;4992596;28;20735;-84
2021/08/12 05:15:13;;;;;;;5.23;4.73;;;;;;;;;;4992283;28;20662;-85
2021/08/12 05:17:39;;;;;;;4.77;4.37;;;;;;;;;;5008926;28;20499;-84
2021/08/12 05:20:06;;;;;;;5.43;4.93;;;;;;;;;;5008950;28;20205;-84
2021/08/12 05:22:32;;;;;;;5.10;4.60;;;;;;;;;;4996199;28;20502;-83
2021/08/12 05:24:58;;;;;;;5.10;4.50;;;;;;;;;;4997572;28;20634;-83
2021/08/12 05:27:24;;;;;;;4.97;4.10;;;;;;;;;;4997147;28;20282;-84
2021/08/12 05:29:51;;;;;;;4.70;4.30;;;;;;;;;;4995318;28;20222;-83
2021/08/12 05:32:17;;;;;;;5.10;4.60;;;;;;;;;;5012859;28;20175;-84
2021/08/12 05:34:43;;;;;;;5.90;5.37;;;;;;;;;;4994282;28;20182;-83
2021/08/12 05:37:09;;;;;;;5.27;4.77;;;;;;;;;;4993499;28;20198;-83
2021/08/12 05:39:35;;;;;;;6.37;5.27;;;;;;;;;;4993609;28;20241;-83
2021/08/12 05:42:02;;;;;;;5.30;4.83;;;;;;;;;;4994489;28;20214;-83
2021/08/12 05:44:28;;;;;;;5.47;4.60;;;;;;;;;;4993266;28;20245;-84
2021/08/12 05:46:54;;;;;;;6.97;5.00;;;;;;;;;;5010744;28;20179;-83
2021/08/12 05:49:23;;;;;;;5.13;4.70;;;;;;;;;;5009157;28;20184;-83
2021/08/12 05:51:49;;;;;;;8.90;5.37;;;;;;;;;;4992798;28;20527;-83
2021/08/12 05:54:15;;;;;;;6.40;5.73;;;;;;;;;;4991422;28;20583;-83
2021/08/12 05:56:41;;;;;;;5.17;4.67;;;;;;;;;;4991080;28;20178;-84
2021/08/12 05:59:07;;;;;;;5.27;4.77;;;;;;;;;;4991303;28;20317;-84
2021/08/12 06:01:33;;;;;;;5.87;5.37;;;;;;;;;;4987367;28;20214;-84
2021/08/12 06:03:59;;;;;;;5.60;5.10;;;;;;;;;;4971938;28;20180;-84
2021/08/12 06:06:27;;;;;;;6.03;4.93;;;;;;;;;;4980000;28;20290;-84
2021/08/12 06:08:53;;;;;;;5.90;5.40;;;;;;;;;;4991301;28;20171;-84
2021/08/12 06:11:19;;;;;;;5.63;4.80;;;;;;;;;;4991079;28;20213;-84
2021/08/12 06:13:45;;;;;;;7.13;5.60;;;;;;;;;;4990747;28;20227;-84
2021/08/12 06:16:11;;;;;;;6.20;5.70;;;;;;;;;;5006489;28;20265;-84
2021/08/12 06:18:38;;;;;;;6.27;5.67;;;;;;;;;;4990683;28;20179;-82
2021/08/12 06:21:04;;;;;;;5.53;4.83;;;;;;;;;;5006399;28;20244;-82
2021/08/12 06:23:30;;;;;;;6.43;5.37;;;;;;;;;;4991718;28;20171;-82
2021/08/12 06:25:57;;;;;;;5.93;5.43;;;;;;;;;;5003694;28;20179;-82
2021/08/12 06:28:23;;;;;;;5.90;5.33;;;;;;;;;;4989973;28;20182;-82
2021/08/12 06:30:49;;;;;;;6.17;5.57;;;;;;;;;;5005049;28;20650;-82
2021/08/12 06:33:15;;;;;;;7.60;6.13;;;;;;;;;;5006998;28;20182;-83
2021/08/12 06:35:41;;;;;;;7.47;6.00;;;;;;;;;;4990937;28;20217;-82
2021/08/12 06:38:10;;;;;;;7.00;6.30;;;;;;;;;;4989250;28;20218;-83
2021/08/12 06:40:39;;;;;;;6.70;5.90;;;;;;;;;;4988897;28;20191;-82
2021/08/12 06:43:05;;;;;;;9.20;6.67;;;;;;;;;;5007263;28;20194;-82
2021/08/12 06:45:31;;;;;;;6.83;6.13;;;;;;;;;;5007441;28;20191;-83
2021/08/12 06:47:57;;;;;;;6.67;5.93;;;;;;;;;;4989912;28;20187;-82
2021/08/12 06:50:24;;;;;;;6.67;5.97;;;;;;;;;;4990767;28;20187;-82
2021/08/12 06:52:51;;;;;;;6.70;6.03;;;;;;;;;;5007407;28;20201;-83
2021/08/12 06:55:17;;;;;;;7.20;6.50;;;;;;;;;;5007752;28;20310;-83
2021/08/12 06:57:43;;;;;;;7.10;6.40;;;;;;;;;;4990729;28;20626;-82
2021/08/12 07:00:14;;;;;;;7.70;6.43;;;;;;;;;;4989587;28;20277;-82
2021/08/12 07:02:41;;;;;;;7.40;6.53;;;;;;;;;;5006654;28;20210;-83
2021/08/12 07:05:07;;;;;;;6.57;5.93;;;;;;;;;;4990307;28;20191;-82
2021/08/12 07:07:33;;;;;;;6.10;5.60;;;;;;;;;;5007831;28;20204;-83
2021/08/12 07:09:59;;;;;;;6.80;6.10;;;;;;;;;;4994120;28;20190;-83
2021/08/12 07:12:25;;;;;;;7.27;6.07;;;;;;;;;;4994380;28;20183;-83
2021/08/12 07:14:51;;;;;;;7.47;6.77;;;;;;;;;;5010312;28;20194;-82
2021/08/12 07:17:18;;;;;;;7.60;6.87;;;;;;;;;;5010085;28;20179;-83
2021/08/12 07:19:44;;;;;;;8.47;7.67;;;;;;;;;;4994329;28;20183;-83
2021/08/12 07:22:10;;;;;;;8.83;7.90;;;;;;;;;;5009708;28;20538;-82
2021/08/12 07:24:36;;;;;;;8.10;7.30;;;;;;;;;;5009962;28;20186;-82
2021/08/12 07:27:02;;;;;;;11.33;8.00;;;;;;;;;;5009811;28;20191;-83
2021/08/12 07:29:28;;;;;;;9.03;8.10;;;;;;;;;;5009611;28;20236;-83
2021/08/12 07:31:54;;;;;;;8.88;8.07;;;;;;;;;;5009240;28;20515;-82
2021/08/12 07:34:20;;;;;;;10.27;7.67;;;;;;;;;;5009516;28;20824;-82
2021/08/12 07:36:46;;;;;;;7.30;6.60;;;;;;;;;;4990701;28;20210;-83
2021/08/12 07:39:13;;;;;;;7.87;7.17;;;;;;;;;;5009804;28;20179;-83
2021/08/12 07:41:39;;;;;;;9.57;8.13;;;;;;;;;;5009546;28;20195;-83
2021/08/12 07:44:05;;;;;;;9.40;8.10;;;;;;;;;;4993140;28;20234;-82
2021/08/12 07:46:32;;;;;;;8.03;7.23;;;;;;;;;;4993313;28;20198;-84
2021/08/12 07:48:58;;;;;;;9.47;8.43;;;;;;;;;;5009876;28;20222;-83
2021/08/12 07:51:24;;;;;;;10.83;8.97;;;;;;;;;;4994313;28;20183;-83
2021/08/12 07:53:51;;;;;;;9.63;7.77;;;;;;;;;;5009415;28;20650;-83
2021/08/12 07:56:17;;;;;;;11.07;8.40;;;;;;;;;;5009410;28;20182;-82
2021/08/12 07:58:43;;;;;;;8.93;8.03;;;;;;;;;;4994799;28;20201;-82
2021/08/12 08:01:09;;;;;;;10.17;9.07;;;;;;;;;;5008790;28;20558;-83
2021/08/12 08:03:35;;;;;;;8.60;7.70;;;;;;;;;;4994139;28;21053;-83
2021/08/12 08:06:01;;;;;;;7.83;7.07;;;;;;;;;;4979014;28;20680;-82
2021/08/12 08:08:28;;;;;;;9.60;8.60;;;;;;;;;;4994556;28;20254;-83
2021/08/12 08:10:54;;;;;;;10.70;9.47;;;;;;;;;;4993793;28;20174;-83
2021/08/12 08:13:20;;;;;;;9.30;8.30;;;;;;;;;;4992487;28;20253;-83
2021/08/12 08:15:46;;;;;;;9.40;8.47;;;;;;;;;;4992376;28;20179;-83
2021/08/12 08:18:12;;;;;;;9.80;8.80;;;;;;;;;;5009093;28;20192;-83
2021/08/12 08:20:38;;;;;;;9.80;8.83;;;;;;;;;;5008384;28;20178;-82
2021/08/12 08:23:09;;;;;;;10.60;8.93;;;;;;;;;;4993954;28;20271;-83
2021/08/12 08:25:35;;;;;;;9.37;8.47;;;;;;;;;;4989139;28;20222;-83
2021/08/12 08:28:02;;;;;;;9.47;8.40;;;;;;;;;;5008814;28;20623;-82
2021/08/12 08:30:30;;;;;;;12.97;9.57;;;;;;;;;;4993791;28;20179;-83
2021/08/12 08:32:56;;;;;;;10.27;9.27;;;;;;;;;;4992138;28;20186;-83
2021/08/12 08:35:25;;;;;;;11.57;10.17;;;;;;;;;;4991888;28;20226;-83
2021/08/12 08:37:53;;;;;;;7.97;7.23;;;;;;;;;;4992275;28;20183;-82
2021/08/12 08:40:19;;;;;;;11.07;9.33;;;;;;;;;;4992479;28;20179;-83
2021/08/12 08:42:46;;;;;;;9.30;8.37;;;;;;;;;;4992580;28;20302;-83
2021/08/12 08:45:14;;;;;;;9.60;8.60;;;;;;;;;;4991792;28;20194;-82
2021/08/12 08:47:44;;;;;;;9.23;7.90;;;;;;;;;;4991928;28;20201;-83
2021/08/12 08:50:11;;;;;;;11.83;8.40;;;;;;;;;;5008131;28;20203;-83
2021/08/12 08:52:38;;;;;;;8.37;7.37;;;;;;;;;;5007988;28;20310;-82
2021/08/12 08:55:04;;;;;;;10.43;8.37;;;;;;;;;;4991617;28;20230;-82
2021/08/12 08:57:32;;;;;;;8.63;7.83;;;;;;;;;;4991636;28;20779;-82
2021/08/12 08:59:58;;;;;;;8.63;7.47;;;;;;;;;;5007786;28;20195;-82
2021/08/12 09:02:24;;;;;;;7.90;7.10;;;;;;;;;;4993266;28;20210;-82
2021/08/12 09:04:50;;;;;;;8.40;7.50;;;;;;;;;;4992415;28;20249;-83
2021/08/12 09:07:19;;;;;;;8.17;7.13;;;;;;;;;;5008134;28;20555;-82
2021/08/12 09:09:45;;;;;;;9.70;7.93;;;;;;;;;;4993143;28;20194;-82
2021/08/12 09:12:11;;;;;;;9.77;7.90;;;;;;;;;;5008077;28;20315;-83
2021/08/12 09:14:39;;;;;;;7.97;7.27;;;;;;;;;;5008247;28;20183;-83
2021/08/12 09:17:21;;;;;;;7.67;6.87;;;;;;;;;;5008619;28;20871;-82
2021/08/12 09:20:05;;;;;;;8.40;7.53;;;;;;;;;;5007633;28;20179;-82
2021/08/12 09:22:49;;;;;;;6.50;5.87;;;;;;;;;;4992890;28;20260;-83
2021/08/12 09:25:15;;;;;;;7.50;6.80;;;;;;;;;;4992708;28;20190;-83
2021/08/12 09:27:41;;;;;;;8.00;7.03;;;;;;;;;;5004086;28;20290;-83
2021/08/12 09:30:17;;;;;;;7.03;6.40;;;;;;;;;;5006658;28;20179;-83
2021/08/12 09:32:52;;;;;;;8.30;6.60;;;;;;;;;;5005602;28;20182;-82
2021/08/12 09:35:26;;;;;;;7.67;6.43;;;;;;;;;;5005306;28;20155;-83
2021/08/12 09:37:52;;;;;;;6.77;6.17;;;;;;;;;;5002848;28;20792;-84
2021/08/12 09:40:26;;;;;;;6.47;5.83;;;;;;;;;;5004728;28;20183;-88
2021/08/12 09:43:00;;;;;;;7.00;6.40;;;;;;;;;;5018048;28;20255;-88
2021/08/12 09:45:27;;;;;;;6.37;5.77;;;;;;;;;;5001026;28;20530;-88
2021/08/12 09:47:54;;;;;;;6.60;5.83;;;;;;;;;;5013221;28;20274;-88
2021/08/12 09:50:39;;;;;;;6.57;5.73;;;;;;;;;;5010184;28;20324;-88
2021/08/12 09:53:06;;;;;;;5.67;5.17;;;;;;;;;;5008503;28;20683;-87
2021/08/12 09:55:39;;;;;;;6.03;5.43;;;;;;;;;;4984478;28;20245;-88
2021/08/12 09:58:05;;;;;;;5.87;5.37;;;;;;;;;;4991290;28;20192;-88
2021/08/12 10:00:44;;;;;;;6.03;5.43;;;;;;;;;;5006480;28;20182;-89
2021/08/12 10:03:19;;;;;;;6.13;5.53;;;;;;;;;;5006772;28;20210;-89
2021/08/12 10:05:45;;;;;;;5.40;4.97;;;;;;;;;;4990728;28;20188;-88
2021/08/12 10:08:11;;;;;;;5.63;5.13;;;;;;;;;;5009485;28;20202;-84
2021/08/12 10:10:38;;;;;;;6.20;5.10;;;;;;;;;;5008468;28;20183;-84
2021/08/12 10:13:04;;;;;;;4.87;4.43;;;;;;;;;;4993576;28;20201;-84
2021/08/12 10:15:32;;;;;;;6.23;4.83;;;;;;;;;;4993972;28;20625;-84
2021/08/12 10:17:59;;;;;;;5.20;4.70;;;;;;;;;;4992978;28;20186;-84
2021/08/12 10:20:27;;;;;;;5.23;4.60;;;;;;;;;;5008289;28;20522;-84
2021/08/12 10:22:55;;;;;;;5.37;4.90;;;;;;;;;;5008475;28;20334;-84
2021/08/12 10:25:21;;;;;;;5.70;4.77;;;;;;;;;;5003064;28;20183;-84
2021/08/12 10:27:50;;;;;;;6.80;4.63;;;;;;;;;;4992583;28;20654;-84
2021/08/12 10:30:16;;;;;;;5.70;5.20;;;;;;;;;;4993105;28;20658;-84
2021/08/12 10:32:45;;;;;;;5.73;5.03;;;;;;;;;;4994674;28;20192;-84
2021/08/12 10:35:11;;;;;;;6.73;4.60;;;;;;;;;;5008204;28;20225;-83
2021/08/12 10:37:38;;;;;;;6.07;5.47;;;;;;;;;;5001009;28;20205;-84
2021/08/12 10:40:04;;;;;;;5.73;5.10;;;;;;;;;;4993157;28;20180;-84
2021/08/12 10:42:31;;;;;;;6.43;4.87;;;;;;;;;;5007724;28;20231;-84
2021/08/12 10:44:57;;;;;;;6.40;4.60;;;;;;;;;;5008059;28;20191;-84
2021/08/12 10:47:39;;;;;;;5.97;5.37;;;;;;;;;;5010253;28;20599;-84
2021/08/12 10:50:31;;;;;;;6.07;4.93;;;;;;;;;;5007949;28;20183;-84
2021/08/12 10:53:07;;;;;;;5.70;5.20;;;;;;;;;;4990798;28;20594;-84
2021/08/12 10:55:39;;;;;;;6.13;5.43;;;;;;;;;;4992192;28;20605;-84
2021/08/12 10:58:22;;;;;;;22.77;20.47;;;;;;;;;;5008809;28;20599;-84
2021/08/12 11:00:49;;;;;;;19.53;17.83;;;;;;;;;;4990763;28;20191;-85
2021/08/12 11:03:35;;;;;;;31.93;29.70;;;;;;;;;;4993151;28;20268;-85
2021/08/12 11:06:12;;;;;;;14.70;13.57;;;;;;;;;;5006641;28;20183;-85
2021/08/12 11:08:52;;;;;;;27.83;25.77;;;;;;;;;;5008279;28;20183;-85
2021/08/12 11:11:38;;;;;;;25.33;23.47;;;;;;;;;;4991598;28;20748;-84
2021/08/12 11:14:06;;;;;;;24.80;23.10;;;;;;;;;;4985422;28;20175;-84
2021/08/12 11:16:55;;;;;;;6.83;4.70;;;;;;;;;;4989466;28;20201;-85
2021/08/12 11:19:21;;;;;;;20.00;18.47;;;;;;;;;;4984340;28;20253;-84
2021/08/12 11:21:48;;;;;;;5.83;4.83;;;;;;;;;;4990517;28;20195;-84
2021/08/12 11:24:23;;;;;;;5.23;4.63;;;;;;;;;;5007401;28;20255;-84
2021/08/12 11:26:49;;;;;;;13.90;12.90;;;;;;;;;;4991922;28;20240;-84
2021/08/12 11:29:57;;;;;;;4.90;4.17;;;;;;;;;;4990278;28;20585;-84
2021/08/12 11:32:16;;;;;;;12.57;11.57;;;;;;;;;;4989960;28;20275;-84
2021/08/12 11:34:52;;;;;;;17.50;16.23;;;;;;;;;;5005516;28;20380;-84
2021/08/12 11:37:22;;;;;;;10.87;10.07;;;;;;;;;;4988616;28;20246;-84
2021/08/12 11:39:58;;;;;;;13.40;12.23;;;;;;;;;;4978431;28;20187;-84
2021/08/12 11:42:24;;;;;;;16.40;15.17;;;;;;;;;;4983217;28;20261;-84
2021/08/12 11:44:51;;;;;;;6.43;5.47;;;;;;;;;;5001521;28;20702;-84
2021/08/12 11:47:17;;;;;;;13.27;12.27;;;;;;;;;;4991131;28;20178;-84
2021/08/12 11:49:48;;;;;;;5.17;4.50;;;;;;;;;;4990052;28;20262;-84
2021/08/12 11:52:20;;;;;;;16.07;14.97;;;;;;;;;;4992530;28;20180;-84
2021/08/12 11:54:53;;;;;;;23.60;21.97;;;;;;;;;;4981163;28;20713;-86
2021/08/12 11:57:19;;;;;;;23.33;21.80;;;;;;;;;;4974921;28;20334;-84
2021/08/12 11:59:45;;;;;;;4.33;3.90;;;;;;;;;;4984991;28;20220;-84
2021/08/12 12:02:11;;;;;;;22.67;20.97;;;;;;;;;;5007279;28;20276;-84
2021/08/12 12:04:38;;;;;;;23.17;21.57;;;;;;;;;;4988933;28;20218;-84
2021/08/12 12:07:04;;;;;;;17.57;16.10;;;;;;;;;;4982577;28;20336;-84
2021/08/12 12:09:34;;;;;;;23.70;22.10;;;;;;;;;;4989407;28;20183;-85
2021/08/12 12:12:02;;;;;;;14.77;13.73;;;;;;;;;;4983146;28;20281;-84
2021/08/12 12:14:30;;;;;;;15.73;14.53;;;;;;;;;;4990348;28;20175;-85
2021/08/12 12:17:06;;;;;;;4.20;3.87;;;;;;;;;;4991187;28;20191;-84
2021/08/12 12:19:32;;;;;;;5.67;3.80;;;;;;;;;;4990883;28;20191;-84
2021/08/12 12:21:58;;;;;;;3.87;3.47;;;;;;;;;;4989564;28;20214;-85
2021/08/12 12:24:24;;;;;;;4.10;3.70;;;;;;;;;;4989369;28;20507;-85
2021/08/12 12:26:57;;;;;;;10.43;9.73;;;;;;;;;;4990309;28;20191;-85
2021/08/12 12:29:23;;;;;;;4.50;3.73;;;;;;;;;;4979785;28;20638;-85
2021/08/12 12:32:02;;;;;;;9.27;8.40;;;;;;;;;;4990998;28;20196;-84
2021/08/12 12:34:28;;;;;;;7.93;7.37;;;;;;;;;;4989461;28;20194;-85
2021/08/12 12:36:54;;;;;;;12.90;12.00;;;;;;;;;;4989625;28;20335;-85
2021/08/12 12:39:20;;;;;;;16.50;15.40;;;;;;;;;;4985028;28;20188;-85
2021/08/12 12:41:50;;;;;;;21.40;20.00;;;;;;;;;;4988962;28;20278;-85
2021/08/12 12:44:16;;;;;;;10.67;9.97;;;;;;;;;;4984876;28;20696;-85
2021/08/12 12:46:42;;;;;;;8.10;7.50;;;;;;;;;;4993019;28;20210;-85
2021/08/12 12:49:24;;;;;;;12.73;11.97;;;;;;;;;;4991023;28;20171;-85
2021/08/12 12:51:51;;;;;;;11.43;10.60;;;;;;;;;;4982304;28;20218;-85
2021/08/12 12:54:29;;;;;;;12.03;11.20;;;;;;;;;;4989134;28;20243;-85
2021/08/12 12:56:55;;;;;;;14.13;13.13;;;;;;;;;;4992263;28;20180;-85
2021/08/12 12:59:21;;;;;;;14.47;13.20;;;;;;;;;;4990807;28;20187;-85
2021/08/12 13:01:54;;;;;;;5.53;4.07;;;;;;;;;;5007413;28;20210;-86
2021/08/12 13:04:21;;;;;;;3.90;3.60;;;;;;;;;;4988036;28;20270;-85
2021/08/12 13:06:47;;;;;;;3.70;3.37;;;;;;;;;;4988553;28;20303;-85
2021/08/12 13:09:29;;;;;;;4.77;4.33;;;;;;;;;;4985614;28;20566;-85
2021/08/12 13:11:55;;;;;;;8.37;7.57;;;;;;;;;;4988836;28;20190;-85
2021/08/12 13:14:22;;;;;;;14.43;13.43;;;;;;;;;;4986994;28;20516;-85
2021/08/12 13:16:50;;;;;;;4.70;3.90;;;;;;;;;;4978896;28;20187;-86
2021/08/12 13:19:26;;;;;;;9.27;8.67;;;;;;;;;;4987533;28;20436;-84
2021/08/12 13:21:53;;;;;;;16.20;14.80;;;;;;;;;;4989664;28;20600;-84
2021/08/12 13:24:21;;;;;;;12.93;12.03;;;;;;;;;;4989481;28;20180;-84
2021/08/12 13:26:56;;;;;;;11.00;10.03;;;;;;;;;;4991571;28;20245;-85
2021/08/12 13:29:32;;;;;;;9.60;5.83;;;;;;;;;;4974180;28;20268;-86
2021/08/12 13:32:05;;;;;;;12.00;10.67;;;;;;;;;;4987433;28;20181;-83
2021/08/12 13:34:31;;;;;;;6.43;5.17;;;;;;;;;;5002930;28;20194;-87
2021/08/12 13:36:57;;;;;;;7.20;5.47;;;;;;;;;;5006242;28;20257;-83
2021/08/12 13:39:23;;;;;;;11.47;10.60;;;;;;;;;;4989173;28;20236;-86
2021/08/12 13:41:54;;;;;;;9.93;8.97;;;;;;;;;;4986891;28;20607;-87
2021/08/12 13:44:22;;;;;;;14.10;12.90;;;;;;;;;;4986780;28;20183;-81
2021/08/12 13:46:48;;;;;;;13.77;12.77;;;;;;;;;;4987742;28;20306;-81
2021/08/12 13:49:14;;;;;;;10.20;9.40;;;;;;;;;;4982402;28;20179;-81
2021/08/12 13:51:40;;;;;;;13.63;12.67;;;;;;;;;;4980855;28;20181;-85
2021/08/12 13:54:07;;;;;;;13.93;12.83;;;;;;;;;;4974015;28;20983;-87
2021/08/12 13:56:33;;;;;;;4.90;4.50;;;;;;;;;;4985634;28;20318;-86
2021/08/12 13:58:59;;;;;;;19.40;18.00;;;;;;;;;;4989281;28;20181;-87
2021/08/12 14:01:25;;;;;;;5.27;4.77;;;;;;;;;;4985950;28;20557;-87
2021/08/12 14:03:54;;;;;;;10.77;9.93;;;;;;;;;;4983175;28;20219;-86
2021/08/12 14:06:20;;;;;;;12.03;11.03;;;;;;;;;;5003886;28;20221;-86
2021/08/12 14:08:46;;;;;;;12.30;11.20;;;;;;;;;;4987141;28;20282;-86
2021/08/12 14:11:12;;;;;;;7.13;5.97;;;;;;;;;;4985598;28;20646;-87
2021/08/12 14:13:38;;;;;;;11.37;10.57;;;;;;;;;;4987379;28;20198;-87
2021/08/12 14:16:05;;;;;;;12.80;11.70;;;;;;;;;;4986302;28;20179;-85
2021/08/12 14:18:34;;;;;;;15.67;14.37;;;;;;;;;;4988452;28;20187;-86
2021/08/12 14:21:01;;;;;;;15.47;14.27;;;;;;;;;;5004648;28;20191;-82
2021/08/12 14:23:27;;;;;;;12.40;11.40;;;;;;;;;;4990448;28;20384;-83
2021/08/12 14:25:53;;;;;;;5.87;5.30;;;;;;;;;;4997850;28;20284;-83
2021/08/12 14:28:19;;;;;;;8.23;5.50;;;;;;;;;;4988719;28;20187;-83
2021/08/12 14:30:46;;;;;;;6.83;5.53;;;;;;;;;;5003518;28;20180;-83
2021/08/12 14:33:12;;;;;;;7.10;6.30;;;;;;;;;;4992617;28;20700;-83
2021/08/12 14:35:38;;;;;;;12.00;11.10;;;;;;;;;;4989883;28;20187;-83
2021/08/12 14:38:04;;;;;;;6.93;6.27;;;;;;;;;;4990767;28;20185;-83
2021/08/12 14:40:31;;;;;;;12.70;11.53;;;;;;;;;;4990557;28;20338;-83
2021/08/12 14:42:58;;;;;;;12.17;9.73;;;;;;;;;;4992010;28;20246;-82